createdAt,value
2024-02-19T00:00:50.985Z,99658.50
2024-02-19T00:03:19.002Z,99668.56
2024-02-19T00:05:46.297Z,99674.81
2024-02-19T00:08:13.052Z,99687.03
2024-02-19T00:10:39.785Z,99718.00
2024-02-19T00:13:06.439Z,99704.41
2024-02-19T00:15:32.971Z,99612.06
2024-02-19T00:18:00.180Z,99661.47
2024-02-19T00:20:26.767Z,99706.84
2024-02-19T00:22:53.287Z,99696.22
2024-02-19T00:25:19.931Z,99689.16
2024-02-19T00:27:46.530Z,99624.00
2024-02-19T00:30:13.363Z,99674.50
2024-02-19T00:32:40.221Z,99683.19
2024-02-19T00:35:07.026Z,99667.97
2024-02-19T00:37:33.635Z,99677.19
2024-02-19T00:40:00.338Z,99620.16
2024-02-19T00:42:27.021Z,99665.81
2024-02-19T00:44:53.533Z,99641.59
2024-02-19T00:47:20.021Z,99654.94
2024-02-19T00:49:46.673Z,99639.72
2024-02-19T00:52:13.417Z,99697.81
2024-02-19T00:54:40.013Z,99690.75
2024-02-19T00:57:06.533Z,99663.59
2024-02-19T00:59:33.076Z,99629.13
2024-02-19T01:01:59.872Z,99645.13
2024-02-19T01:04:26.598Z,99646.72
2024-02-19T01:06:53.261Z,99610.94
2024-02-19T01:09:19.749Z,99691.28
2024-02-19T01:11:46.256Z,99658.09
2024-02-19T01:14:12.770Z,99682.28
2024-02-19T01:16:39.389Z,99628.78
2024-02-19T01:19:06.886Z,99645.59
2024-02-19T01:21:33.570Z,99640.16
2024-02-19T01:24:01.501Z,99655.91
2024-02-19T01:26:28.036Z,99639.59
2024-02-19T01:28:54.568Z,99616.22
2024-02-19T01:31:22.237Z,99668.34
2024-02-19T01:33:49.536Z,99627.13
2024-02-19T01:36:16.143Z,99592.34
2024-02-19T01:38:43.403Z,99623.28
2024-02-19T01:41:10.039Z,99662.91
2024-02-19T01:43:37.583Z,99633.38
2024-02-19T01:46:04.403Z,99668.94
2024-02-19T01:48:30.982Z,99611.34
2024-02-19T01:50:57.576Z,99662.66
2024-02-19T01:53:24.681Z,99624.94
2024-02-19T01:55:51.272Z,99597.22
2024-02-19T01:58:17.814Z,99604.78
2024-02-19T02:00:44.418Z,99574.38
2024-02-19T02:03:11.368Z,99586.34
2024-02-19T02:05:37.999Z,99579.28
2024-02-19T02:08:06.388Z,99549.72
2024-02-19T02:10:32.973Z,99621.09
2024-02-19T02:12:59.517Z,99597.22
2024-02-19T02:15:26.584Z,99580.88
2024-02-19T02:17:53.126Z,99588.47
2024-02-19T02:20:19.677Z,99587.97
2024-02-19T02:22:48.218Z,99615.06
2024-02-19T02:25:14.857Z,99552.38
2024-02-19T02:27:41.468Z,99562.41
2024-02-19T02:30:09.496Z,99604.22
2024-02-19T02:32:36.160Z,99632.47
2024-02-19T02:35:03.921Z,99631.41
2024-02-19T02:37:31.769Z,99599.94
2024-02-19T02:39:58.388Z,99548.38
2024-02-19T02:42:25.026Z,99587.47
2024-02-19T02:44:51.902Z,99588.56
2024-02-19T02:47:18.460Z,99611.34
2024-02-19T02:49:44.976Z,99618.44
2024-02-19T02:52:11.552Z,99566.88
2024-02-19T02:54:38.352Z,99597.53
2024-02-19T02:57:04.935Z,99581.03
2024-02-19T02:59:31.504Z,99613.31
2024-02-19T03:01:58.107Z,99550.63
2024-02-19T03:04:24.945Z,99593.47
2024-02-19T03:06:51.626Z,99647.25
2024-02-19T03:09:18.328Z,99550.63
2024-02-19T03:11:44.889Z,99643.44
2024-02-19T03:14:14.862Z,99618.97
2024-02-19T03:16:41.673Z,99627.38
2024-02-19T03:19:10.690Z,99602.97
2024-02-19T03:21:37.856Z,99621.66
2024-02-19T03:24:04.772Z,99587.72
2024-02-19T03:26:37.843Z,99607.00
2024-02-19T03:29:13.859Z,99572.81
2024-02-19T03:31:41.429Z,99596.44
2024-02-19T03:34:08.408Z,99594.53
2024-02-19T03:36:35.188Z,99620.31
2024-02-19T03:39:01.680Z,99608.91
2024-02-19T03:41:28.277Z,99591.28
2024-02-19T03:43:54.956Z,99600.00
2024-02-19T03:46:21.592Z,99588.59
2024-02-19T03:48:48.182Z,99616.81
2024-02-19T03:51:14.752Z,99594.03
2024-02-19T03:53:41.278Z,99602.72
2024-02-19T03:56:07.880Z,99587.53
2024-02-19T03:58:36.106Z,99576.69
2024-02-19T04:01:03.844Z,99597.03
2024-02-19T04:03:32.089Z,99562.56
2024-02-19T04:05:58.731Z,99601.66
2024-02-19T04:08:25.202Z,99578.88
2024-02-19T04:10:51.697Z,99579.41
2024-02-19T04:13:18.411Z,99574.50
2024-02-19T04:15:45.004Z,99590.25
2024-02-19T04:18:11.700Z,99563.09
2024-02-19T04:20:38.187Z,99573.69
2024-02-19T04:23:04.834Z,99553.03
2024-02-19T04:25:31.352Z,99560.94
2024-02-19T04:27:57.905Z,99578.81
2024-02-19T04:30:24.415Z,99586.91
2024-02-19T04:32:52.171Z,99559.22
2024-02-19T04:35:19.692Z,99607.53
2024-02-19T04:37:46.243Z,99554.59
2024-02-19T04:40:14.162Z,99574.88
2024-02-19T04:42:40.816Z,99588.44
2024-02-19T04:45:07.589Z,99569.94
2024-02-19T04:47:34.087Z,99551.44
2024-02-19T04:50:00.973Z,99562.84
2024-02-19T04:52:27.785Z,99543.84
2024-02-19T04:54:54.425Z,99556.28
2024-02-19T04:57:21.265Z,99531.25
2024-02-19T04:59:47.799Z,99566.97
2024-02-19T05:02:14.298Z,99545.19
2024-02-19T05:04:41.381Z,99544.63
2024-02-19T05:07:08.092Z,99567.78
2024-02-19T05:09:34.898Z,99576.38
2024-02-19T05:12:01.730Z,99566.06
2024-02-19T05:14:28.281Z,99584.41
2024-02-19T05:16:56.082Z,99581.56
2024-02-19T05:19:23.074Z,99501.59
2024-02-19T05:21:49.783Z,99579.25
2024-02-19T05:24:18.389Z,99547.81
2024-02-19T05:26:45.077Z,99586.13
2024-02-19T05:29:12.022Z,99565.00
2024-02-19T05:31:39.234Z,99529.16
2024-02-19T05:34:06.135Z,99577.78
2024-02-19T05:36:32.867Z,99551.78
2024-02-19T05:38:59.908Z,99582.09
2024-02-19T05:41:26.647Z,99533.31
2024-02-19T05:43:53.416Z,99533.81
2024-02-19T05:46:20.654Z,99534.84
2024-02-19T05:48:47.509Z,99538.69
2024-02-19T05:51:14.188Z,99555.44
2024-02-19T05:53:41.872Z,99563.53
2024-02-19T05:56:10.616Z,99585.22
2024-02-19T05:58:41.652Z,99555.44
2024-02-19T06:01:08.692Z,99554.81
2024-02-19T06:03:35.562Z,99549.38
2024-02-19T06:06:02.495Z,99526.34
2024-02-19T06:08:29.091Z,99563.16
2024-02-19T06:10:56.667Z,99584.50
2024-02-19T06:13:23.404Z,99568.41
2024-02-19T06:15:50.130Z,99546.22
2024-02-19T06:18:16.856Z,99504.66
2024-02-19T06:20:43.743Z,99542.81
2024-02-19T06:23:10.248Z,99543.63
2024-02-19T06:25:36.781Z,99528.09
2024-02-19T06:28:03.561Z,99577.63
2024-02-19T06:30:30.153Z,99537.03
2024-02-19T06:32:56.711Z,99573.78
2024-02-19T06:35:23.305Z,99550.44
2024-02-19T06:37:50.142Z,99564.47
2024-02-19T06:40:17.131Z,99486.56
2024-02-19T06:42:43.743Z,99548.25
2024-02-19T06:45:10.985Z,99534.44
2024-02-19T06:47:37.616Z,99557.16
2024-02-19T06:50:04.489Z,99522.28
2024-02-19T06:52:31.220Z,99577.66
2024-02-19T06:54:57.819Z,99528.59
2024-02-19T06:57:24.412Z,99540.50
2024-02-19T06:59:50.926Z,99554.78
2024-02-19T07:02:17.495Z,99510.31
2024-02-19T07:04:46.327Z,99503.31
2024-02-19T07:07:13.078Z,99550.81
2024-02-19T07:09:41.478Z,99524.63
2024-02-19T07:12:08.673Z,99586.28
2024-02-19T07:14:35.210Z,99541.28
2024-02-19T07:17:01.717Z,99556.91
2024-02-19T07:19:28.343Z,99571.13
2024-02-19T07:21:54.934Z,99545.84
2024-02-19T07:24:21.532Z,99559.25
2024-02-19T07:26:48.065Z,99542.59
2024-02-19T07:29:14.759Z,99496.00
2024-02-19T07:31:41.346Z,99527.22
2024-02-19T07:34:08.781Z,99556.84
2024-02-19T07:36:35.738Z,99523.22
2024-02-19T07:39:02.320Z,99541.06
2024-02-19T07:41:28.867Z,99534.91
2024-02-19T07:43:55.410Z,99545.16
2024-02-19T07:46:23.240Z,99510.88
2024-02-19T07:48:50.226Z,99544.81
2024-02-19T07:51:17.809Z,99486.50
2024-02-19T07:53:45.031Z,99554.59
2024-02-19T07:56:11.652Z,99548.31
2024-02-19T07:58:38.171Z,99520.31
2024-02-19T08:01:05.577Z,99544.63
2024-02-19T08:03:32.796Z,99516.41
2024-02-19T08:05:59.474Z,99563.25
2024-02-19T08:08:26.269Z,99533.19
2024-02-19T08:10:53.224Z,99550.00
2024-02-19T08:13:19.917Z,99557.78
2024-02-19T08:15:46.654Z,99583.22
2024-02-19T08:18:13.307Z,99531.66
2024-02-19T08:20:40.326Z,99571.91
2024-02-19T08:23:06.917Z,99549.22
2024-02-19T08:25:33.759Z,99584.97
2024-02-19T08:28:00.651Z,99498.44
2024-02-19T08:30:27.220Z,99567.25
2024-02-19T08:32:53.687Z,99591.13
2024-02-19T08:35:20.312Z,99564.63
2024-02-19T08:37:46.890Z,99518.84
2024-02-19T08:40:13.511Z,99579.13
2024-02-19T08:42:40.258Z,99592.31
2024-02-19T08:45:07.335Z,99592.97
2024-02-19T08:47:33.847Z,99587.16
2024-02-19T08:50:00.555Z,99551.50
2024-02-19T08:52:27.218Z,99557.13
2024-02-19T08:54:53.856Z,99525.31
2024-02-19T08:57:21.085Z,99571.97
2024-02-19T08:59:47.749Z,99565.47
2024-02-19T09:02:14.763Z,99552.91
2024-02-19T09:04:43.693Z,99598.53
2024-02-19T09:07:10.678Z,99536.66
2024-02-19T09:09:37.754Z,99556.75
2024-02-19T09:12:05.209Z,99516.28
2024-02-19T09:14:31.739Z,99548.00
2024-02-19T09:16:58.269Z,99570.81
2024-02-19T09:19:24.949Z,99552.03
2024-02-19T09:21:51.555Z,99553.09
2024-02-19T09:24:18.136Z,99533.50
2024-02-19T09:26:44.635Z,99563.41
2024-02-19T09:29:11.180Z,99582.28
2024-02-19T09:31:37.908Z,99503.81
2024-02-19T09:34:04.785Z,99522.25
2024-02-19T09:36:31.354Z,99571.97
2024-02-19T09:38:57.850Z,99571.75
2024-02-19T09:41:24.492Z,99502.00
2024-02-19T09:43:52.887Z,99568.53
2024-02-19T09:46:23.513Z,99520.84
2024-02-19T09:48:50.894Z,99570.97
2024-02-19T09:51:29.387Z,99591.03
2024-02-19T09:54:00.049Z,99537.91
2024-02-19T09:56:27.222Z,99593.69
2024-02-19T09:58:53.788Z,99548.69
2024-02-19T10:01:20.501Z,99579.47
2024-02-19T10:03:47.272Z,99591.84
2024-02-19T10:06:14.020Z,99580.28
2024-02-19T10:08:40.681Z,99570.53
2024-02-19T10:11:09.461Z,99528.81
2024-02-19T10:13:38.196Z,99580.09
2024-02-19T10:16:09.516Z,99598.09
2024-02-19T10:18:36.233Z,99584.13
2024-02-19T10:21:03.085Z,99577.00
2024-02-19T10:23:29.637Z,99580.47
2024-02-19T10:25:56.425Z,99521.47
2024-02-19T10:28:24.532Z,99551.06
2024-02-19T10:30:52.358Z,99585.69
2024-02-19T10:33:20.618Z,99600.19
2024-02-19T10:35:50.650Z,99530.25
2024-02-19T10:38:18.357Z,99533.66
2024-02-19T10:40:44.941Z,99603.88
2024-02-19T10:43:11.951Z,99594.31
2024-02-19T10:45:39.439Z,99609.75
2024-02-19T10:48:06.540Z,99545.94
2024-02-19T10:50:33.657Z,99609.53
2024-02-19T10:53:00.236Z,99543.72
2024-02-19T10:55:36.052Z,99500.38
2024-02-19T10:58:13.946Z,99575.34
2024-02-19T11:00:41.936Z,99530.34
2024-02-19T11:03:09.538Z,99558.72
2024-02-19T11:05:40.049Z,99599.78
2024-02-19T11:08:18.232Z,99493.97
2024-02-19T11:10:45.033Z,99585.50
2024-02-19T11:13:13.275Z,99562.66
2024-02-19T11:15:43.263Z,99510.41
2024-02-19T11:18:12.591Z,99562.16
2024-02-19T11:20:39.274Z,99543.25
2024-02-19T11:23:06.025Z,99529.84
2024-02-19T11:25:32.665Z,99518.19
2024-02-19T11:27:59.774Z,99582.28
2024-02-19T11:30:27.045Z,99587.94
2024-02-19T11:33:05.714Z,99588.69
2024-02-19T11:35:36.607Z,99600.91
2024-02-19T11:38:04.285Z,99546.59
2024-02-19T11:40:34.423Z,99538.66
2024-02-19T11:43:02.870Z,99602.84
2024-02-19T11:45:31.271Z,99536.34
2024-02-19T11:47:59.630Z,99562.56
2024-02-19T11:50:30.024Z,99564.19
2024-02-19T11:52:58.755Z,99534.25
2024-02-19T11:55:26.179Z,99576.16
2024-02-19T11:57:53.929Z,99517.59
2024-02-19T12:00:23.601Z,99532.44
2024-02-19T12:02:52.658Z,99533.91
2024-02-19T12:05:20.079Z,99609.78
2024-02-19T12:07:46.723Z,99569.53
2024-02-19T12:10:13.452Z,99517.09
2024-02-19T12:12:40.869Z,99530.66
2024-02-19T12:15:12.234Z,99581.66
2024-02-19T12:17:40.520Z,99559.97
2024-02-19T12:20:08.632Z,99512.84
2024-02-19T12:22:35.278Z,99543.16
2024-02-19T12:25:01.919Z,99559.22
2024-02-19T12:27:28.483Z,99576.66
2024-02-19T12:29:55.101Z,99510.03
2024-02-19T12:32:22.230Z,99536.63
2024-02-19T12:34:49.133Z,99550.84
2024-02-19T12:37:16.569Z,99515.91
2024-02-19T12:39:43.530Z,99598.53
2024-02-19T12:42:11.558Z,99605.19
2024-02-19T12:44:39.394Z,99513.63
2024-02-19T12:47:06.985Z,99562.28
2024-02-19T12:49:37.476Z,99513.81
2024-02-19T12:52:05.886Z,99579.97
2024-02-19T12:54:32.994Z,99581.09
2024-02-19T12:57:00.338Z,99573.56
2024-02-19T12:59:26.825Z,99536.25
2024-02-19T13:01:53.453Z,99543.16
2024-02-19T13:04:20.585Z,99581.59
2024-02-19T13:06:47.904Z,99583.00
2024-02-19T13:09:15.284Z,99581.25
2024-02-19T13:11:41.850Z,99576.03
2024-02-19T13:14:08.447Z,99509.19
2024-02-19T13:16:36.481Z,99514.53
2024-02-19T13:19:03.500Z,99604.13
2024-02-19T13:21:31.739Z,99603.47
2024-02-19T13:23:58.233Z,99600.84
2024-02-19T13:26:24.749Z,99625.47
2024-02-19T13:28:51.288Z,99638.22
2024-02-19T13:31:17.920Z,99593.78
2024-02-19T13:33:44.673Z,99575.09
2024-02-19T13:36:11.256Z,99600.69
2024-02-19T13:38:39.163Z,99586.16
2024-02-19T13:41:05.872Z,99635.22
2024-02-19T13:43:33.425Z,99611.31
2024-02-19T13:46:02.802Z,99639.81
2024-02-19T13:48:30.102Z,99595.66
2024-02-19T13:50:57.978Z,99547.25
2024-02-19T13:53:26.505Z,99524.13
2024-02-19T13:55:53.663Z,99624.22
2024-02-19T13:58:21.886Z,99607.09
2024-02-19T14:00:48.735Z,99616.53
2024-02-19T14:03:17.948Z,99573.19
2024-02-19T14:05:45.583Z,99597.94
2024-02-19T14:08:13.563Z,99618.63
2024-02-19T14:10:40.491Z,99607.47
2024-02-19T14:13:07.123Z,99642.75
2024-02-19T14:15:33.784Z,99651.91
2024-02-19T14:18:00.462Z,99603.59
2024-02-19T14:20:27.178Z,99626.81
2024-02-19T14:22:54.152Z,99649.38
2024-02-19T14:25:21.064Z,99631.41
2024-02-19T14:27:47.726Z,99635.47
2024-02-19T14:30:14.739Z,99597.59
2024-02-19T14:32:41.596Z,99622.16
2024-02-19T14:35:10.136Z,99651.13
2024-02-19T14:37:39.979Z,99630.44
2024-02-19T14:40:10.270Z,99586.28
2024-02-19T14:42:37.582Z,99626.09
2024-02-19T14:45:05.567Z,99666.28
2024-02-19T14:47:32.221Z,99656.00
2024-02-19T14:49:58.954Z,99581.84
2024-02-19T14:52:26.193Z,99642.00
2024-02-19T14:54:55.229Z,99595.81
2024-02-19T14:57:22.026Z,99690.91
2024-02-19T14:59:51.718Z,99596.09
2024-02-19T15:02:19.030Z,99685.94
2024-02-19T15:04:45.820Z,99699.88
2024-02-19T15:07:16.017Z,99636.16
2024-02-19T15:09:42.960Z,99702.00
2024-02-19T15:12:10.269Z,99634.47
2024-02-19T15:14:36.868Z,99663.38
2024-02-19T15:17:04.323Z,99658.91
2024-02-19T15:19:30.926Z,99681.91
2024-02-19T15:21:57.514Z,99715.84
2024-02-19T15:24:26.894Z,99674.03
2024-02-19T15:26:53.415Z,99642.25
2024-02-19T15:29:21.668Z,99623.03
2024-02-19T15:31:48.235Z,99659.41
2024-02-19T15:34:14.852Z,99625.06
2024-02-19T15:36:41.414Z,99669.53
2024-02-19T15:39:09.497Z,99699.84
2024-02-19T15:41:38.840Z,99698.09
2024-02-19T15:44:05.678Z,99646.88
2024-02-19T15:46:32.499Z,99646.88
2024-02-19T15:49:01.566Z,99602.22
2024-02-19T15:51:30.680Z,99664.75
2024-02-19T15:53:58.150Z,99659.06
2024-02-19T15:56:25.945Z,99685.16
2024-02-19T15:58:52.726Z,99635.56
2024-02-19T16:01:19.766Z,99685.19
2024-02-19T16:03:46.496Z,99654.06
2024-02-19T16:06:13.060Z,99622.44
2024-02-19T16:08:42.443Z,99735.09
2024-02-19T16:11:10.592Z,99694.34
2024-02-19T16:13:39.092Z,99656.16
2024-02-19T16:16:07.129Z,99719.00
2024-02-19T16:18:34.533Z,99678.31
2024-02-19T16:21:01.604Z,99739.22
2024-02-19T16:23:30.236Z,99711.16
2024-02-19T16:25:59.251Z,99662.44
2024-02-19T16:28:26.828Z,99695.22
2024-02-19T16:30:53.438Z,99715.00
2024-02-19T16:33:20.003Z,99750.06
2024-02-19T16:35:46.662Z,99721.75
2024-02-19T16:38:15.223Z,99750.44
2024-02-19T16:40:43.236Z,99683.78
2024-02-19T16:43:09.788Z,99709.81
2024-02-19T16:45:38.689Z,99738.59
2024-02-19T16:48:09.946Z,99667.28
2024-02-19T16:50:36.931Z,99770.69
2024-02-19T16:53:03.738Z,99765.47
2024-02-19T16:55:30.303Z,99708.75
2024-02-19T16:57:56.962Z,99717.66
2024-02-19T17:00:23.592Z,99711.84
2024-02-19T17:02:50.170Z,99786.75
2024-02-19T17:05:16.927Z,99759.84
2024-02-19T17:07:44.082Z,99742.09
2024-02-19T17:10:11.032Z,99743.91
2024-02-19T17:12:37.572Z,99727.72
2024-02-19T17:15:04.261Z,99771.72
2024-02-19T17:17:30.768Z,99747.94
2024-02-19T17:19:57.452Z,99769.19
2024-02-19T17:22:24.092Z,99699.50
2024-02-19T17:24:50.646Z,99784.44
2024-02-19T17:27:17.242Z,99757.28
2024-02-19T17:29:43.777Z,99717.72
2024-02-19T17:32:10.358Z,99769.28
2024-02-19T17:34:37.880Z,99766.63
2024-02-19T17:37:05.075Z,99749.91
2024-02-19T17:39:31.862Z,99730.38
2024-02-19T17:41:58.378Z,99793.25
2024-02-19T17:44:25.452Z,99814.47
2024-02-19T17:46:52.844Z,99771.59
2024-02-19T17:49:19.868Z,99778.69
2024-02-19T17:51:46.701Z,99816.59
2024-02-19T17:54:14.836Z,99773.69
2024-02-19T17:56:41.535Z,99735.94
2024-02-19T17:59:10.830Z,99801.78
2024-02-19T18:01:39.208Z,99760.88
2024-02-19T18:04:06.342Z,99764.91
2024-02-19T18:06:35.180Z,99751.31
2024-02-19T18:09:03.999Z,99795.22
2024-02-19T18:11:30.814Z,99781.59
2024-02-19T18:13:58.957Z,99763.28
2024-02-19T18:16:25.558Z,99825.91
2024-02-19T18:18:52.166Z,99797.91
2024-02-19T18:21:21.004Z,99766.41
2024-02-19T18:23:51.207Z,99772.69
2024-02-19T18:26:18.320Z,99823.09
2024-02-19T18:28:44.900Z,99796.25
2024-02-19T18:31:12.375Z,99778.97
2024-02-19T18:33:39.023Z,99766.47
2024-02-19T18:36:06.319Z,99789.75
2024-02-19T18:38:35.089Z,99820.69
2024-02-19T18:41:03.903Z,99815.78
2024-02-19T18:43:30.715Z,99766.47
2024-02-19T18:46:00.844Z,99796.84
2024-02-19T18:48:29.611Z,99792.03
2024-02-19T18:50:56.805Z,99789.88
2024-02-19T18:53:23.579Z,99723.75
2024-02-19T18:56:02.577Z,99819.16
2024-02-19T18:58:29.977Z,99756.84
2024-02-19T19:00:57.284Z,99813.81
2024-02-19T19:03:26.052Z,99758.03
2024-02-19T19:05:56.434Z,99812.28
2024-02-19T19:08:24.542Z,99776.28
2024-02-19T19:10:51.135Z,99812.88
2024-02-19T19:13:17.675Z,99795.81
2024-02-19T19:15:44.241Z,99749.97
2024-02-19T19:18:11.097Z,99789.03
2024-02-19T19:20:40.081Z,99772.31
2024-02-19T19:23:07.004Z,99724.50
2024-02-19T19:25:33.737Z,99727.22
2024-02-19T19:28:00.666Z,99821.13
2024-02-19T19:30:27.732Z,99807.03
2024-02-19T19:32:54.568Z,99751.69
2024-02-19T19:35:24.279Z,99791.84
2024-02-19T19:37:51.980Z,99816.00
2024-02-19T19:40:19.893Z,99824.16
2024-02-19T19:42:49.446Z,99763.66
2024-02-19T19:45:16.161Z,99820.88
2024-02-19T19:47:45.817Z,99807.63
2024-02-19T19:50:12.625Z,99827.75
2024-02-19T19:52:39.281Z,99796.81
2024-02-19T19:55:06.105Z,99750.13
2024-02-19T19:57:32.876Z,99773.53
2024-02-19T20:00:00.854Z,99798.19
2024-02-19T20:02:27.977Z,99839.00
2024-02-19T20:04:56.477Z,99816.69
2024-02-19T20:07:26.360Z,99800.72
2024-02-19T20:09:53.073Z,99806.19
2024-02-19T20:12:21.378Z,99763.31
2024-02-19T20:14:48.024Z,99756.25
2024-02-19T20:17:20.223Z,99791.88
2024-02-19T20:19:46.886Z,99751.97
2024-02-19T20:22:14.656Z,99845.94
2024-02-19T20:24:41.238Z,99816.63
2024-02-19T20:27:08.242Z,99833.13
2024-02-19T20:29:35.176Z,99737.34
2024-02-19T20:32:04.068Z,99786.22
2024-02-19T20:34:31.686Z,99843.56
2024-02-19T20:36:58.543Z,99851.50
2024-02-19T20:39:25.935Z,99806.94
2024-02-19T20:41:53.586Z,99781.41
2024-02-19T20:44:20.204Z,99819.91
2024-02-19T20:46:46.945Z,99837.31
2024-02-19T20:49:13.500Z,99828.59
2024-02-19T20:51:40.112Z,99840.56
2024-02-19T20:54:06.616Z,99803.59
2024-02-19T20:56:33.180Z,99830.22
2024-02-19T20:58:59.715Z,99838.94
2024-02-19T21:01:26.531Z,99775.38
2024-02-19T21:03:53.160Z,99756.44
2024-02-19T21:06:20.365Z,99841.69
2024-02-19T21:08:47.203Z,99805.34
2024-02-19T21:11:16.079Z,99853.72
2024-02-19T21:13:43.677Z,99825.22
2024-02-19T21:16:11.229Z,99852.13
2024-02-19T21:18:46.569Z,99847.78
2024-02-19T21:21:22.045Z,99853.78
2024-02-19T21:23:56.401Z,99805.94
2024-02-19T21:26:23.041Z,99773.44
2024-02-19T21:28:50.333Z,99824.16
2024-02-19T21:31:17.616Z,99810.31
2024-02-19T21:33:44.499Z,99817.97
2024-02-19T21:36:11.360Z,99812.00
2024-02-19T21:38:38.105Z,99788.13
2024-02-19T21:41:04.872Z,99852.75
2024-02-19T21:43:31.451Z,99766.41
2024-02-19T21:46:00.272Z,99799.31
2024-02-19T21:48:27.240Z,99847.31
2024-02-19T21:50:53.921Z,99810.38
2024-02-19T21:53:20.436Z,99800.28
2024-02-19T21:55:47.046Z,99794.59
2024-02-19T21:58:13.679Z,99796.25
2024-02-19T22:00:40.257Z,99792.97
2024-02-19T22:03:07.119Z,99791.38
2024-02-19T22:05:33.813Z,99835.38
2024-02-19T22:08:01.206Z,99756.88
2024-02-19T22:10:27.976Z,99818.78
2024-02-19T22:12:54.717Z,99817.44
2024-02-19T22:15:21.869Z,99724.91
2024-02-19T22:17:48.471Z,99739.78
2024-02-19T22:20:15.124Z,99721.91
2024-02-19T22:22:43.161Z,99775.06
2024-02-19T22:25:10.018Z,99798.41
2024-02-19T22:27:36.578Z,99769.66
2024-02-19T22:30:04.804Z,99777.56
2024-02-19T22:32:32.871Z,99768.56
2024-02-19T22:35:00.136Z,99787.59
2024-02-19T22:37:27.395Z,99738.75
2024-02-19T22:39:54.097Z,99763.00
2024-02-19T22:42:20.620Z,99713.25
2024-02-19T22:44:47.182Z,99774.56
2024-02-19T22:47:13.728Z,99807.16
2024-02-19T22:49:40.439Z,99727.84
2024-02-19T22:52:07.786Z,99801.69
2024-02-19T22:54:34.702Z,99725.38
2024-02-19T22:57:01.622Z,99765.84
2024-02-19T22:59:28.288Z,99759.81
2024-02-19T23:01:55.029Z,99782.16
2024-02-19T23:04:21.830Z,99749.00
2024-02-19T23:06:49.129Z,99787.00
2024-02-19T23:09:15.750Z,99789.47
2024-02-19T23:11:43.125Z,99757.44
2024-02-19T23:14:10.250Z,99703.44
2024-02-19T23:16:36.807Z,99734.09
2024-02-19T23:19:03.861Z,99775.63
2024-02-19T23:21:30.675Z,99719.13
2024-02-19T23:23:57.267Z,99752.78
2024-02-19T23:26:23.766Z,99740.00
2024-02-19T23:28:50.255Z,99766.28
2024-02-19T23:31:16.866Z,99718.50
2024-02-19T23:33:43.816Z,99682.13
2024-02-19T23:36:10.423Z,99664.19
2024-02-19T23:38:36.904Z,99758.06
2024-02-19T23:41:03.470Z,99753.72
2024-02-19T23:43:30.380Z,99773.34
2024-02-19T23:45:57.016Z,99700.03
2024-02-19T23:48:23.730Z,99697.84
2024-02-19T23:50:50.373Z,99741.78
2024-02-19T23:53:16.897Z,99758.91
2024-02-19T23:55:43.863Z,99728.75
2024-02-19T23:58:11.557Z,99751.56
